Time;durP1;ratioP1;P1;durP2;ratioP2;P2;SDS_P1;SDS_P2;PMS_P1;PMS_P2;Temp;Humidity;BMP_temperature;BMP_pressure;BME280_temperature;BME280_humidity;BME280_pressure;Samples;Min_cycle;Max_cycle;Signal;HPM_P1;HPM_P2
2021/12/25 00:01:22;;;;;;;2.63;1.75;;;;;;;10.83;68.78;99552.25;5094179;28;20205;-75
2021/12/25 00:03:51;;;;;;;2.42;2.00;;;;;;;10.90;68.45;99566.97;5081895;28;20206;-75
2021/12/25 00:06:18;;;;;;;1.77;1.67;;;;;;;10.84;69.06;99572.09;5073929;28;20199;-76
2021/12/25 00:08:45;;;;;;;1.23;1.15;;;;;;;10.92;68.74;99561.78;5087625;28;20711;-76
2021/12/25 00:11:12;;;;;;;1.83;1.73;;;;;;;10.78;69.19;99553.06;5078934;28;20194;-76
2021/12/25 00:13:41;;;;;;;1.67;1.30;;;;;;;10.84;69.09;99569.50;5083831;28;20191;-77
2021/12/25 00:16:09;;;;;;;1.25;1.15;;;;;;;10.85;70.23;99580.75;5075137;28;20195;-75
2021/12/25 00:18:36;;;;;;;1.30;1.20;;;;;;;10.89;70.06;99569.53;5079156;28;20588;-76
2021/12/25 00:21:04;;;;;;;1.90;1.80;;;;;;;10.84;69.60;99581.63;5075175;28;20223;-75
2021/12/25 00:23:31;;;;;;;2.00;1.63;;;;;;;10.80;69.86;99564.31;5093456;28;20206;-77
2021/12/25 00:26:02;;;;;;;2.15;1.75;;;;;;;10.76;70.74;99565.16;5088222;28;20198;-73
2021/12/25 00:28:50;;;;;;;3.45;1.52;;;;;;;10.79;71.25;99579.00;5083105;28;20202;-75
2021/12/25 00:31:43;;;;;;;1.67;1.58;;;;;;;10.71;71.93;99574.63;5094084;28;20217;-75
2021/12/25 00:34:10;;;;;;;1.27;1.27;;;;;;;10.80;71.60;99569.50;5093632;28;20297;-76
2021/12/25 00:36:37;;;;;;;2.08;1.98;;;;;;;10.77;71.60;99567.75;5091470;28;20194;-77
2021/12/25 00:39:05;;;;;;;1.88;1.60;;;;;;;10.85;71.02;99567.78;5090512;28;20216;-74
2021/12/25 00:41:32;;;;;;;1.33;1.25;;;;;;;10.83;70.84;99561.75;5093398;28;20224;-75
2021/12/25 00:43:58;;;;;;;2.00;1.90;;;;;;;10.90;70.94;99574.75;5084296;28;20202;-75
2021/12/25 00:46:27;;;;;;;1.40;1.40;;;;;;;10.93;70.29;99579.94;5089182;28;20221;-76
2021/12/25 00:48:54;;;;;;;1.63;1.52;;;;;;;10.90;70.24;99573.88;5090018;28;20194;-74
2021/12/25 00:51:20;;;;;;;1.70;1.70;;;;;;;10.75;71.07;99577.25;5072986;28;20191;-75
2021/12/25 00:53:47;;;;;;;1.67;1.58;;;;;;;10.85;70.40;99572.97;5073153;28;20236;-76
2021/12/25 00:56:14;;;;;;;1.40;1.38;;;;;;;10.87;70.00;99563.50;5090031;28;20198;-75
2021/12/25 00:58:41;;;;;;;1.13;1.13;;;;;;;10.95;70.51;99582.56;5081075;28;20678;-77
2021/12/25 01:01:08;;;;;;;2.55;1.80;;;;;;;10.95;70.14;99574.78;5088447;28;20202;-75
2021/12/25 01:03:36;;;;;;;7.72;1.90;;;;;;;11.01;69.98;99579.13;5092811;28;20198;-75
2021/12/25 01:06:03;;;;;;;1.85;1.75;;;;;;;11.02;69.40;99573.97;5093254;28;20190;-76
2021/12/25 01:08:29;;;;;;;1.55;1.45;;;;;;;11.07;69.97;99580.00;5082799;28;20201;-75
2021/12/25 01:10:56;;;;;;;2.08;1.67;;;;;;;11.07;69.23;99568.78;5085335;28;20233;-77
2021/12/25 01:13:26;;;;;;;2.75;1.60;;;;;;;10.97;70.07;99565.28;5089001;28;20195;-76
2021/12/25 01:16:06;;;;;;;3.15;1.60;;;;;;;10.97;69.94;99565.28;5073119;28;20557;-76
2021/12/25 01:24:36;;;;;;;16.17;7.65;;;;;;;11.18;68.85;99567.09;5087602;28;20206;-75
2021/12/25 01:30:01;;;;;;;3.60;1.83;;;;;;;11.04;66.89;99499.59;5048781;28;20266;-75
2021/12/25 01:33:01;;;;;;;3.80;2.45;;;;;;;11.66;65.50;99563.81;5077241;28;20200;-75
2021/12/25 01:35:56;;;;;;;10.15;6.03;;;;;;;11.89;64.20;99567.31;5092208;28;20232;-77
2021/12/25 01:38:48;;;;;;;2.03;1.80;;;;;;;12.11;62.89;99571.69;5079938;28;20611;-75
2021/12/25 01:41:19;;;;;;;3.47;1.95;;;;;;;12.16;62.71;99562.16;5083990;28;20205;-75
2021/12/25 01:49:15;;;;;;;1.60;1.45;;;;;;;12.03;62.37;99539.63;5084793;28;20228;-75
2021/12/25 01:51:42;;;;;;;3.30;2.63;;;;;;;12.16;61.87;99554.38;5084011;28;20191;-76
2021/12/25 01:54:10;;;;;;;1.83;1.67;;;;;;;12.01;61.88;99538.78;5072050;28;20228;-76
2021/12/25 01:56:37;;;;;;;2.33;2.13;;;;;;;11.98;61.87;99548.28;5090690;28;20293;-76
2021/12/25 01:59:04;;;;;;;5.40;3.78;;;;;;;11.87;62.81;99550.88;5081128;28;20197;-75
2021/12/25 02:01:31;;;;;;;1.83;1.70;;;;;;;11.70;62.91;99531.78;5072144;28;20253;-75
2021/12/25 02:03:58;;;;;;;3.35;1.90;;;;;;;11.67;63.34;99548.22;5072104;28;20198;-78
2021/12/25 02:06:25;;;;;;;3.05;2.08;;;;;;;11.61;63.55;99539.53;5071724;28;20324;-76
2021/12/25 02:08:52;;;;;;;4.13;2.85;;;;;;;11.50;63.88;99528.25;5081534;28;20203;-76
2021/12/25 02:11:20;;;;;;;2.47;1.67;;;;;;;11.50;64.21;99538.66;5076671;28;20218;-76
2021/12/25 02:13:48;;;;;;;5.18;3.45;;;;;;;11.43;64.28;99536.03;5072573;28;20202;-75
2021/12/25 02:16:18;;;;;;;14.63;7.13;;;;;;;11.37;64.93;99537.75;5071501;28;20206;-74
2021/12/25 02:19:00;;;;;;;3.35;3.15;;;;;;;11.33;66.03;99542.09;5078466;28;20204;-76
2021/12/25 02:21:35;;;;;;;7.78;4.78;;;;;;;11.40;65.41;99529.97;5086895;28;20661;-75
2021/12/25 02:24:03;;;;;;;1.75;1.65;;;;;;;11.34;65.92;99528.22;5080573;28;20276;-76
2021/12/25 02:26:30;;;;;;;1.65;1.52;;;;;;;11.29;66.75;99535.13;5081126;28;20202;-75
2021/12/25 02:28:57;;;;;;;1.63;1.52;;;;;;;11.29;66.95;99532.53;5083463;28;20194;-74
2021/12/25 02:31:25;;;;;;;2.63;2.42;;;;;;;11.30;67.32;99536.88;5091362;28;20226;-74
2021/12/25 02:33:51;;;;;;;2.33;2.00;;;;;;;11.20;68.02;99534.25;5091612;28;20202;-75
2021/12/25 02:36:19;;;;;;;5.53;5.03;;;;;;;11.15;67.78;99544.59;5091469;28;20205;-76
2021/12/25 02:38:48;;;;;;;2.55;2.35;;;;;;;11.14;68.97;99534.22;5071541;28;20227;-75
2021/12/25 02:41:15;;;;;;;2.78;2.47;;;;;;;10.96;69.35;99514.25;5071053;28;20689;-76
2021/12/25 02:43:45;;;;;;;5.45;3.38;;;;;;;10.97;69.86;99534.16;5081834;28;20198;-76
2021/12/25 02:46:12;;;;;;;2.00;1.90;;;;;;;10.88;71.56;99536.69;5080363;28;20229;-75
2021/12/25 02:48:41;;;;;;;2.92;2.50;;;;;;;10.82;72.36;99534.94;5080607;28;20191;-75
2021/12/25 02:51:08;;;;;;;3.80;3.15;;;;;;;10.75;73.50;99534.88;5091034;28;20704;-76
2021/12/25 02:53:36;;;;;;;2.70;2.50;;;;;;;10.63;75.47;99540.03;5091453;28;20252;-76
2021/12/25 02:56:05;;;;;;;3.22;2.78;;;;;;;10.66;75.25;99533.13;5083698;28;20221;-76
2021/12/25 02:58:31;;;;;;;20.45;12.40;;;;;;;10.54;76.64;99534.78;5082445;28;20194;-75
2021/12/25 03:01:02;;;;;;;5.63;4.70;;;;;;;10.53;76.30;99538.22;5071027;28;20211;-75
2021/12/25 03:03:29;;;;;;;10.07;6.50;;;;;;;10.48;77.01;99532.16;5072462;28;20191;-74
2021/12/25 03:05:56;;;;;;;2.80;2.03;;;;;;;10.52;77.38;99536.50;5071691;28;20206;-75
2021/12/25 03:08:23;;;;;;;7.80;5.65;;;;;;;10.51;77.57;99539.94;5077932;28;20619;-76
2021/12/25 03:10:50;;;;;;;11.25;5.55;;;;;;;10.57;76.72;99545.16;5090260;28;20233;-77
2021/12/25 03:13:31;;;;;;;5.50;5.00;;;;;;;10.61;76.05;99552.09;5090908;28;20229;-75
2021/12/25 03:15:58;;;;;;;5.05;4.35;;;;;;;10.60;76.43;99556.41;5074505;28;20637;-77
2021/12/25 03:18:27;;;;;;;6.60;5.30;;;;;;;10.62;76.07;99564.22;5078935;28;20614;-75
2021/12/25 03:20:58;;;;;;;4.57;3.42;;;;;;;10.63;76.70;99566.78;5090674;28;20229;-75
2021/12/25 03:23:27;;;;;;;5.28;4.22;;;;;;;10.63;76.23;99560.75;5090116;28;20677;-74
2021/12/25 03:25:56;;;;;;;19.10;9.45;;;;;;;10.76;75.20;99555.66;5094466;28;20191;-76
2021/12/25 03:28:29;;;;;;;14.73;8.05;;;;;;;10.87;74.55;99566.09;5091543;28;20657;-76
2021/12/25 03:30:59;;;;;;;5.00;3.08;;;;;;;10.87;73.97;99568.69;5094748;28;20221;-75
2021/12/25 03:33:26;;;;;;;2.83;1.60;;;;;;;11.12;71.94;99580.91;5085840;28;20669;-76
2021/12/25 03:35:52;;;;;;;3.10;2.72;;;;;;;11.34;71.48;99580.13;5076798;28;20633;-74
2021/12/25 03:38:20;;;;;;;4.28;3.20;;;;;;;11.47;70.30;99581.06;5079785;28;20222;-74
2021/12/25 03:40:48;;;;;;;5.47;2.92;;;;;;;11.74;68.29;99578.56;5093392;28;20626;-75
2021/12/25 03:43:15;;;;;;;31.85;11.52;;;;;;;11.73;67.22;99582.03;5095096;28;20190;-76
2021/12/25 03:45:45;;;;;;;5.40;2.80;;;;;;;11.81;66.68;99582.91;5076515;28;20202;-75
2021/12/25 03:48:16;;;;;;;3.83;1.98;;;;;;;11.82;66.58;99583.75;5078879;28;20198;-75
2021/12/25 03:57:35;;;;;;;1.85;1.75;;;;;;;11.62;68.68;99580.22;5093618;28;20201;-76
2021/12/25 03:59:11;;;;;;;3.78;2.75;;;;;;;11.23;71.35;99586.16;5082143;28;20703;-77
2021/12/25 04:01:46;;;;;;;6.65;4.40;;;;;;;11.02;73.27;99593.84;5074054;28;20191;-75
2021/12/25 04:04:20;;;;;;;5.00;2.70;;;;;;;10.91;74.77;99596.38;5073703;28;20198;-77
2021/12/25 04:06:55;;;;;;;4.40;2.00;;;;;;;10.45;75.79;99540.78;5073726;28;20191;-76
2021/12/25 04:09:26;;;;;;;3.00;2.58;;;;;;;10.60;78.34;99607.38;5072821;28;20263;-77
2021/12/25 04:11:54;;;;;;;6.65;4.63;;;;;;;10.33;81.14;99608.94;5073831;28;20226;-76
2021/12/25 04:14:21;;;;;;;3.13;2.72;;;;;;;10.32;81.77;99604.59;5073659;28;20191;-77
2021/12/25 04:16:50;;;;;;;3.40;3.10;;;;;;;10.52;79.81;99603.88;5073449;28;20191;-75
2021/12/25 04:19:17;;;;;;;4.28;3.15;;;;;;;10.38;80.09;99576.13;5072832;28;20224;-75
2021/12/25 04:21:52;;;;;;;5.45;3.03;;;;;;;10.57;80.78;99608.25;5073636;28;20187;-78
2021/12/25 04:24:19;;;;;;;4.82;2.92;;;;;;;10.45;81.52;99605.56;5073351;28;20665;-75
2021/12/25 04:26:47;;;;;;;3.15;2.38;;;;;;;10.39;82.47;99606.38;5073410;28;20681;-77
2021/12/25 04:29:35;;;;;;;3.60;2.72;;;;;;;10.22;83.56;99602.78;5073419;28;20202;-77
2021/12/25 04:47:50;;;;;;;1.38;1.33;;;;;;;11.97;68.21;99594.19;5073303;28;20205;-77
2021/12/25 05:02:51;;;;;;;1.55;1.45;;;;;;;12.18;65.01;99621.94;5075255;28;20247;-77
2021/12/25 05:05:20;;;;;;;5.88;3.38;;;;;;;12.16;64.42;99621.06;5088422;28;20680;-76
2021/12/25 05:07:48;;;;;;;3.40;2.75;;;;;;;12.26;63.65;99649.69;5089043;28;20554;-75
2021/12/25 05:10:15;;;;;;;2.15;1.75;;;;;;;12.25;63.17;99647.94;5087182;28;20294;-75
2021/12/25 05:12:41;;;;;;;6.32;3.75;;;;;;;12.22;64.01;99632.34;5088761;28;20251;-77
2021/12/25 05:15:09;;;;;;;2.08;1.98;;;;;;;12.07;64.47;99636.63;5088411;28;20672;-75
2021/12/25 05:17:36;;;;;;;2.45;2.25;;;;;;;12.07;64.37;99637.50;5088605;28;20202;-76
2021/12/25 05:20:02;;;;;;;3.40;2.90;;;;;;;11.97;64.07;99616.69;5088630;28;20214;-76
2021/12/25 05:22:29;;;;;;;2.38;2.17;;;;;;;12.01;65.76;99632.31;5076748;28;20230;-75
2021/12/25 05:24:58;;;;;;;8.93;5.82;;;;;;;12.02;65.85;99634.03;5068844;28;20195;-75
2021/12/25 05:27:24;;;;;;;5.68;3.65;;;;;;;12.05;66.82;99639.25;5088644;28;20661;-76
2021/12/25 05:29:51;;;;;;;6.20;3.65;;;;;;;12.06;67.86;99650.47;5078645;28;20237;-76
2021/12/25 05:32:19;;;;;;;8.02;3.45;;;;;;;12.08;68.23;99649.66;5078366;28;20260;-75
2021/12/25 05:34:46;;;;;;;9.82;5.22;;;;;;;11.97;69.60;99630.56;5088368;28;20198;-75
2021/12/25 05:37:15;;;;;;;5.20;4.15;;;;;;;12.02;70.74;99639.22;5086179;28;20195;-76
2021/12/25 05:39:42;;;;;;;3.42;2.13;;;;;;;12.09;71.69;99635.78;5087164;28;20202;-74
2021/12/25 05:42:11;;;;;;;2.80;2.60;;;;;;;12.30;71.90;99642.75;5079698;28;20195;-76
2021/12/25 05:44:37;;;;;;;9.07;5.25;;;;;;;12.30;72.55;99642.75;5073415;28;20670;-75
2021/12/25 05:47:04;;;;;;;8.15;5.00;;;;;;;12.24;73.14;99640.13;5082755;28;20666;-75
2021/12/25 05:49:31;;;;;;;4.38;3.42;;;;;;;12.19;72.46;99637.53;5070775;28;20701;-76
2021/12/25 05:51:58;;;;;;;5.95;3.53;;;;;;;12.18;71.84;99630.59;5073350;28;20589;-76
2021/12/25 05:54:25;;;;;;;5.22;3.25;;;;;;;12.12;71.71;99642.72;5087920;28;20589;-76
2021/12/25 05:56:52;;;;;;;22.40;12.88;;;;;;;11.95;71.43;99645.25;5088475;28;20194;-76
2021/12/25 05:59:20;;;;;;;8.05;4.57;;;;;;;11.70;72.10;99635.66;5081377;28;20201;-77
2021/12/25 06:01:47;;;;;;;13.68;6.35;;;;;;;11.68;72.01;99655.53;5062663;28;20190;-73
2021/12/25 06:04:14;;;;;;;9.20;4.72;;;;;;;11.67;71.79;99652.06;5055775;28;20187;-81
2021/12/25 06:06:40;;;;;;;5.05;3.65;;;;;;;11.60;72.00;99659.84;5056914;28;20206;-80
2021/12/25 06:09:08;;;;;;;5.07;2.92;;;;;;;11.53;73.58;99658.06;5073652;28;20195;-82
2021/12/25 06:11:35;;;;;;;2.22;2.00;;;;;;;11.58;72.82;99661.56;5071878;28;20226;-78
2021/12/25 06:14:09;;;;;;;3.97;2.95;;;;;;;11.57;72.60;99665.88;5055830;28;20192;-77
2021/12/25 06:16:38;;;;;;;2.10;1.90;;;;;;;11.63;73.17;99667.66;5065894;28;20191;-79
2021/12/25 06:19:05;;;;;;;2.33;2.10;;;;;;;11.58;72.22;99651.19;5062353;28;20191;-78
2021/12/25 06:21:32;;;;;;;3.45;3.13;;;;;;;11.72;71.79;99675.50;5058235;28;20674;-77
2021/12/25 06:24:01;;;;;;;4.93;2.60;;;;;;;11.75;71.54;99680.72;5074078;28;20203;-77
2021/12/25 06:26:28;;;;;;;6.47;3.97;;;;;;;11.77;70.99;99673.81;5062934;28;20188;-77
2021/12/25 06:28:55;;;;;;;4.22;3.25;;;;;;;11.78;71.25;99672.94;5060466;28;20223;-80
2021/12/25 06:31:22;;;;;;;9.95;3.13;;;;;;;11.65;71.44;99655.53;5073433;28;20620;-81
2021/12/25 06:33:51;;;;;;;3.15;2.45;;;;;;;11.72;72.38;99685.91;5056861;28;20210;-79
2021/12/25 06:36:18;;;;;;;2.40;2.20;;;;;;;11.75;72.16;99686.78;5070052;28;20203;-79
2021/12/25 06:38:45;;;;;;;4.47;3.17;;;;;;;11.71;72.51;99685.03;5072136;28;20191;-77
2021/12/25 06:41:13;;;;;;;3.42;3.00;;;;;;;11.53;72.82;99648.56;5053901;28;20192;-78
2021/12/25 06:43:40;;;;;;;3.53;3.22;;;;;;;11.73;72.60;99688.50;5064199;28;20704;-78
2021/12/25 06:46:07;;;;;;;3.05;2.83;;;;;;;11.82;71.94;99682.47;5057611;28;20199;-79
2021/12/25 06:48:34;;;;;;;4.63;3.60;;;;;;;11.58;72.18;99635.59;5054445;28;20274;-82
2021/12/25 06:51:02;;;;;;;4.50;2.65;;;;;;;11.94;71.83;99685.13;5064742;28;20238;-79
2021/12/25 06:53:29;;;;;;;2.35;2.13;;;;;;;12.08;72.11;99687.75;5065242;28;20257;-80
2021/12/25 06:55:55;;;;;;;1.60;1.50;;;;;;;12.33;70.62;99686.94;5053261;28;20199;-79
2021/12/25 06:58:22;;;;;;;2.95;2.53;;;;;;;12.15;69.81;99634.94;5053801;28;20199;-79
2021/12/25 07:00:49;;;;;;;4.07;2.38;;;;;;;12.58;69.35;99699.09;5056575;28;20705;-79
2021/12/25 07:03:16;;;;;;;2.65;2.45;;;;;;;12.61;69.20;99698.22;5054469;28;20211;-80
2021/12/25 07:05:43;;;;;;;2.47;2.17;;;;;;;12.62;68.24;99699.97;5065400;28;20194;-79
2021/12/25 07:08:11;;;;;;;2.38;2.17;;;;;;;12.25;67.52;99645.34;5067428;28;20199;-78
2021/12/25 07:10:38;;;;;;;1.95;1.75;;;;;;;12.64;67.87;99698.22;5072440;28;20237;-79
2021/12/25 07:13:07;;;;;;;3.47;2.75;;;;;;;12.62;67.02;99694.78;5072642;28;20277;-80
2021/12/25 07:15:34;;;;;;;5.82;2.63;;;;;;;12.55;66.50;99687.81;5068868;28;20214;-80
2021/12/25 07:18:00;;;;;;;7.63;3.17;;;;;;;12.48;67.76;99686.97;5053247;28;20222;-80
2021/12/25 07:20:27;;;;;;;7.80;3.53;;;;;;;12.49;66.38;99683.47;5052356;28;20215;-75
2021/12/25 07:22:54;;;;;;;26.13;10.00;;;;;;;12.50;66.07;99699.94;5062482;28;20201;-77
2021/12/25 07:25:24;;;;;;;36.83;14.13;;;;;;;12.57;65.90;99699.09;5069320;28;20192;-75
2021/12/25 07:27:51;;;;;;;15.50;7.40;;;;;;;12.60;66.04;99693.88;5053065;28;20191;-76
2021/12/25 07:30:18;;;;;;;60.58;23.10;;;;;;;12.56;66.64;99707.75;5060221;28;20619;-74
2021/12/25 07:32:45;;;;;;;24.95;5.78;;;;;;;12.57;66.15;99691.28;5063581;28;20205;-77
2021/12/25 07:35:12;;;;;;;35.28;13.45;;;;;;;12.72;65.28;99707.78;5072931;28;20195;-73
2021/12/25 07:37:38;;;;;;;28.38;9.57;;;;;;;12.75;64.87;99706.91;5063304;28;20192;-73
2021/12/25 07:40:09;;;;;;;33.63;13.68;;;;;;;12.82;64.49;99700.84;5056622;28;20195;-74
2021/12/25 07:42:37;;;;;;;37.08;12.75;;;;;;;12.86;65.01;99711.25;5072434;28;20202;-75
2021/12/25 07:45:06;;;;;;;7.15;5.03;;;;;;;12.71;63.64;99664.41;5066171;28;20196;-75
2021/12/25 07:47:34;;;;;;;29.92;16.65;;;;;;;13.11;63.10;99724.28;5052545;28;20221;-76
2021/12/25 07:50:02;;;;;;;17.08;9.98;;;;;;;13.16;63.53;99725.97;5052215;28;20219;-75
2021/12/25 07:52:29;;;;;;;40.83;18.98;;;;;;;13.19;62.89;99726.00;5052388;28;20674;-75
2021/12/25 07:54:56;;;;;;;19.73;11.13;;;;;;;13.23;62.37;99711.25;5056059;28;20217;-76
2021/12/25 07:57:23;;;;;;;12.07;7.90;;;;;;;13.37;61.99;99717.28;5067711;28;20195;-75
2021/12/25 07:59:51;;;;;;;30.63;15.77;;;;;;;13.56;61.29;99718.09;5059835;28;20629;-78
2021/12/25 08:02:18;;;;;;;35.65;16.77;;;;;;;13.62;60.73;99715.50;5052180;28;20199;-75
2021/12/25 08:04:45;;;;;;;36.40;18.27;;;;;;;13.66;60.56;99732.84;5052074;28;20693;-75
2021/12/25 08:07:12;;;;;;;10.55;7.15;;;;;;;13.51;61.55;99727.69;5057821;28;20257;-75
2021/12/25 08:09:39;;;;;;;11.70;7.10;;;;;;;13.50;61.40;99725.94;5071398;28;20198;-76
2021/12/25 08:12:06;;;;;;;12.07;5.47;;;;;;;13.63;60.72;99712.00;5062052;28;20741;-75
2021/12/25 08:14:35;;;;;;;24.90;13.80;;;;;;;13.79;60.24;99730.19;5052357;28;20198;-76
2021/12/25 08:17:04;;;;;;;15.82;7.15;;;;;;;13.94;59.58;99712.75;5052249;28;20265;-75
2021/12/25 08:19:31;;;;;;;21.50;7.40;;;;;;;14.01;59.02;99711.84;5070367;28;20222;-77
2021/12/25 08:21:58;;;;;;;4.85;3.55;;;;;;;14.14;58.71;99714.38;5060096;28;20203;-77
2021/12/25 08:24:25;;;;;;;5.65;3.03;;;;;;;14.20;59.48;99722.16;5070549;28;20213;-78
2021/12/25 08:26:52;;;;;;;10.98;5.65;;;;;;;13.96;57.88;99664.94;5071867;28;20634;-78
2021/12/25 08:29:19;;;;;;;8.98;4.72;;;;;;;14.38;58.65;99721.22;5071972;28;20194;-76
2021/12/25 08:31:46;;;;;;;8.50;4.95;;;;;;;14.45;57.89;99711.66;5071113;28;20226;-77
2021/12/25 08:34:14;;;;;;;6.68;4.25;;;;;;;14.50;57.67;99721.16;5063320;28;20205;-75
2021/12/25 08:36:41;;;;;;;12.38;4.82;;;;;;;14.57;57.45;99720.25;5065586;28;20196;-77
2021/12/25 08:39:08;;;;;;;12.48;6.72;;;;;;;14.63;57.04;99729.75;5052019;28;20261;-76
2021/12/25 08:41:37;;;;;;;14.93;6.22;;;;;;;14.53;58.07;99730.69;5064931;28;20570;-76
2021/12/25 08:44:08;;;;;;;8.02;5.05;;;;;;;14.54;57.37;99716.78;5068205;28;20563;-80
2021/12/25 08:46:45;;;;;;;13.82;5.00;;;;;;;14.55;57.08;99718.53;5052312;28;20206;-76
2021/12/25 08:49:16;;;;;;;30.42;13.00;;;;;;;14.74;56.25;99738.38;5052261;28;20219;-80
2021/12/25 08:51:44;;;;;;;28.00;13.25;;;;;;;14.75;56.83;99727.06;5052111;28;20238;-80
2021/12/25 08:54:12;;;;;;;15.27;7.60;;;;;;;14.62;56.99;99696.72;5051760;28;20223;-77
2021/12/25 08:56:39;;;;;;;10.25;5.30;;;;;;;14.71;57.17;99720.13;5066857;28;20203;-76
2021/12/25 08:59:06;;;;;;;6.38;4.18;;;;;;;14.70;58.05;99713.19;5071730;28;20578;-76
2021/12/25 09:01:32;;;;;;;10.65;5.90;;;;;;;14.67;57.89;99718.41;5071885;28;20202;-76
2021/12/25 09:04:00;;;;;;;13.25;7.28;;;;;;;14.67;58.52;99711.47;5071858;28;20203;-77
2021/12/25 09:06:28;;;;;;;3.67;2.35;;;;;;;14.60;59.36;99685.44;5057518;28;20195;-76
2021/12/25 09:08:55;;;;;;;4.18;3.20;;;;;;;14.81;59.34;99693.94;5051641;28;20196;-76
2021/12/25 09:11:24;;;;;;;24.52;10.70;;;;;;;15.01;59.56;99709.47;5050577;28;20722;-72
2021/12/25 09:13:51;;;;;;;8.13;5.47;;;;;;;15.18;60.14;99706.69;5052808;28;20736;-74
2021/12/25 09:16:17;;;;;;;4.63;3.00;;;;;;;15.35;59.91;99712.59;5072356;28;20198;-75
2021/12/25 09:18:46;;;;;;;6.20;3.10;;;;;;;15.49;59.72;99721.19;5054270;28;20274;-79
2021/12/25 09:21:13;;;;;;;6.25;2.53;;;;;;;15.41;60.02;99709.06;5051493;28;20231;-77
2021/12/25 09:23:41;;;;;;;5.53;2.90;;;;;;;15.68;58.94;99721.84;5051531;28;20187;-77
2021/12/25 09:26:08;;;;;;;3.92;1.85;;;;;;;15.62;59.02;99701.91;5051242;28;20206;-78
2021/12/25 09:28:36;;;;;;;4.72;2.80;;;;;;;15.68;60.33;99704.44;5051246;28;20200;-75
2021/12/25 09:31:03;;;;;;;5.88;3.33;;;;;;;15.73;60.61;99704.38;5055470;28;20222;-79
2021/12/25 09:33:30;;;;;;;10.45;5.13;;;;;;;15.68;62.25;99714.88;5066293;28;20625;-79
2021/12/25 09:35:57;;;;;;;4.00;2.92;;;;;;;15.60;61.97;99700.16;5064085;28;20279;-79
2021/12/25 09:38:24;;;;;;;5.45;3.63;;;;;;;15.64;61.85;99712.31;5055031;28;20195;-76
2021/12/25 09:40:52;;;;;;;9.55;5.38;;;;;;;15.63;60.97;99710.56;5054640;28;20199;-78
2021/12/25 09:43:19;;;;;;;3.78;3.40;;;;;;;15.60;60.40;99716.72;5063382;28;20669;-77
2021/12/25 09:45:46;;;;;;;3.47;2.42;;;;;;;15.56;60.97;99716.75;5075979;28;20580;-77
2021/12/25 09:48:13;;;;;;;1.92;1.83;;;;;;;15.47;60.73;99711.63;5066095;28;20195;-75
2021/12/25 09:50:40;;;;;;;2.92;2.17;;;;;;;15.41;60.77;99709.91;5058517;28;20211;-78
2021/12/25 09:53:08;;;;;;;5.43;3.45;;;;;;;15.55;59.91;99707.22;5063866;28;20252;-76
2021/12/25 09:55:35;;;;;;;5.53;2.97;;;;;;;15.49;59.73;99682.00;5064249;28;20199;-78
2021/12/25 09:58:03;;;;;;;8.45;3.13;;;;;;;15.58;60.00;99697.59;5075110;28;20195;-79
2021/12/25 10:00:30;;;;;;;5.97;4.32;;;;;;;15.69;59.19;99694.84;5074972;28;20201;-80
2021/12/25 10:02:58;;;;;;;6.05;3.33;;;;;;;15.73;58.35;99680.88;5074115;28;20187;-78
2021/12/25 10:05:27;;;;;;;7.57;3.85;;;;;;;15.60;58.67;99681.88;5074534;28;20209;-81
2021/12/25 10:08:08;;;;;;;5.43;3.30;;;;;;;15.59;59.11;99688.00;5057236;28;20195;-77
2021/12/25 10:10:41;;;;;;;3.33;2.97;;;;;;;15.30;59.11;99655.16;5062620;28;20563;-80
2021/12/25 10:13:24;;;;;;;1.65;1.55;;;;;;;15.17;58.66;99632.69;5064745;28;20191;-79
2021/12/25 10:15:52;;;;;;;3.10;2.38;;;;;;;15.48;58.41;99679.38;5052612;28;20201;-78
2021/12/25 10:18:27;;;;;;;3.47;2.83;;;;;;;15.55;58.69;99681.09;5053357;28;20208;-78
2021/12/25 10:20:54;;;;;;;20.92;11.50;;;;;;;15.44;58.83;99682.91;5057187;28;20230;-76
2021/12/25 10:23:28;;;;;;;71.63;30.48;;;;;;;15.50;58.95;99682.88;5051160;28;20204;-76
2021/12/25 10:25:57;;;;;;;43.53;21.48;;;;;;;15.50;58.73;99680.25;5053038;28;20741;-76
2021/12/25 10:28:31;;;;;;;23.35;11.40;;;;;;;15.43;59.17;99676.81;5054791;28;20210;-78
2021/12/25 10:30:59;;;;;;;12.88;7.40;;;;;;;15.39;59.58;99675.97;5060059;28;20607;-74
2021/12/25 10:33:37;;;;;;;13.25;7.15;;;;;;;15.44;59.24;99672.47;5058776;28;20290;-74
2021/12/25 10:36:08;;;;;;;14.63;6.50;;;;;;;15.46;59.73;99665.47;5060967;28;20696;-75
2021/12/25 10:38:35;;;;;;;21.38;11.13;;;;;;;15.19;59.02;99610.06;5065804;28;20207;-75
2021/12/25 10:41:11;;;;;;;6.47;4.57;;;;;;;15.61;57.73;99639.19;5055070;28;20202;-75
2021/12/25 10:43:42;;;;;;;6.22;4.05;;;;;;;15.80;57.50;99656.38;5063011;28;20202;-74
2021/12/25 10:46:09;;;;;;;6.28;2.80;;;;;;;15.83;57.57;99657.19;5056735;28;20729;-76
2021/12/25 10:48:36;;;;;;;5.85;4.63;;;;;;;15.93;57.35;99646.59;5073045;28;20198;-73
2021/12/25 10:51:03;;;;;;;4.97;3.78;;;;;;;15.90;57.40;99644.91;5063259;28;20234;-72
2021/12/25 10:53:32;;;;;;;3.65;2.47;;;;;;;15.90;57.01;99654.50;5053112;28;20195;-73
2021/12/25 10:56:07;;;;;;;3.75;2.55;;;;;;;15.92;57.36;99650.97;5051853;28;20196;-76
2021/12/25 10:58:34;;;;;;;5.65;3.17;;;;;;;15.95;57.26;99656.16;5053618;28;20218;-74
2021/12/25 11:01:05;;;;;;;4.47;2.38;;;;;;;16.01;56.87;99656.09;5051870;28;20674;-75
2021/12/25 11:03:34;;;;;;;3.28;2.90;;;;;;;16.03;57.19;99646.44;5052859;28;20282;-76
2021/12/25 11:06:05;;;;;;;3.03;2.72;;;;;;;15.90;57.56;99637.06;5052425;28;20694;-75
2021/12/25 11:08:32;;;;;;;5.53;2.70;;;;;;;15.89;57.22;99624.88;5052109;28;20260;-75
2021/12/25 11:11:01;;;;;;;5.00;2.53;;;;;;;16.08;57.16;99649.00;5063008;28;20199;-73
2021/12/25 11:13:30;;;;;;;2.63;2.00;;;;;;;16.05;57.20;99647.28;5062670;28;20608;-74
2021/12/25 11:16:05;;;;;;;4.70;3.90;;;;;;;16.16;57.57;99637.53;5052260;28;20206;-73
2021/12/25 11:19:00;;;;;;;2.88;2.60;;;;;;;16.11;58.07;99641.13;5054129;28;20195;-76
2021/12/25 11:21:27;;;;;;;5.38;4.10;;;;;;;16.13;57.93;99637.59;5055761;28;20634;-76
2021/12/25 11:24:08;;;;;;;3.75;2.72;;;;;;;16.17;57.67;99641.88;5059920;28;20191;-75
2021/12/25 11:26:35;;;;;;;4.20;2.92;;;;;;;16.05;58.11;99613.28;5056156;28;20195;-77
2021/12/25 11:29:03;;;;;;;3.67;1.98;;;;;;;16.17;57.64;99641.88;5055493;28;20199;-76
2021/12/25 11:31:31;;;;;;;2.97;1.80;;;;;;;16.08;57.70;99639.44;5060223;28;20219;-77
2021/12/25 11:33:59;;;;;;;1.98;1.88;;;;;;;16.12;57.87;99633.28;5063774;28;20192;-77
2021/12/25 11:36:26;;;;;;;3.13;2.83;;;;;;;16.23;58.71;99641.78;5061174;28;20199;-78
2021/12/25 11:38:53;;;;;;;4.95;3.70;;;;;;;16.28;58.26;99626.91;5062412;28;20195;-78
2021/12/25 11:41:27;;;;;;;6.15;3.17;;;;;;;16.35;58.28;99633.78;5061396;28;20204;-78
2021/12/25 11:43:55;;;;;;;3.25;2.78;;;;;;;16.29;58.28;99628.63;5060794;28;20199;-77
2021/12/25 11:46:23;;;;;;;25.67;13.90;;;;;;;15.98;57.65;99567.19;5061123;28;20227;-78
2021/12/25 11:49:07;;;;;;;40.00;12.85;;;;;;;15.81;57.63;99532.59;5060036;28;20291;-77
2021/12/25 11:51:34;;;;;;;10.20;6.55;;;;;;;16.20;57.26;99615.69;5053319;28;20230;-78
2021/12/25 11:54:14;;;;;;;24.38;12.82;;;;;;;16.31;57.48;99619.00;5051518;28;20627;-76
2021/12/25 11:57:02;;;;;;;5.95;4.03;;;;;;;16.31;57.24;99632.09;5052358;28;20298;-77
2021/12/25 11:59:43;;;;;;;6.03;3.90;;;;;;;16.36;57.38;99627.66;5070905;28;20561;-78
2021/12/25 12:02:11;;;;;;;8.98;5.30;;;;;;;16.35;58.05;99618.06;5056923;28;20214;-80
2021/12/25 12:04:40;;;;;;;10.98;5.85;;;;;;;16.18;57.66;99600.91;5052088;28;20253;-78
2021/12/25 12:07:13;;;;;;;5.30;3.30;;;;;;;16.27;57.80;99614.69;5059744;28;20190;-78
2021/12/25 12:09:55;;;;;;;8.18;5.43;;;;;;;16.34;57.54;99613.72;5058307;28;20201;-79
2021/12/25 12:12:24;;;;;;;12.13;6.43;;;;;;;16.31;57.97;99618.13;5060106;28;20701;-78
2021/12/25 12:15:14;;;;;;;8.75;5.07;;;;;;;16.32;57.48;99620.75;5053443;28;20200;-80
2021/12/25 12:17:42;;;;;;;9.05;6.13;;;;;;;16.30;57.92;99616.44;5065560;28;20245;-79
2021/12/25 12:20:16;;;;;;;7.95;5.60;;;;;;;16.37;57.69;99610.22;5064524;28;20209;-78
2021/12/25 12:25:48;;;;;;;5.95;3.70;;;;;;;16.42;57.62;99620.56;5045611;28;20217;-79
2021/12/25 12:28:15;;;;;;;10.10;6.65;;;;;;;16.40;57.57;99606.66;5063326;28;20251;-80
2021/12/25 12:30:45;;;;;;;3.90;3.08;;;;;;;16.43;57.88;99628.41;5070083;28;20197;-78
2021/12/25 12:33:35;;;;;;;3.70;1.98;;;;;;;16.45;57.22;99620.53;5051742;28;20277;-77